Time;durP1;ratioP1;P1;durP2;ratioP2;P2;SDS_P1;SDS_P2;PMS_P1;PMS_P2;Temp;Humidity;BMP_temperature;BMP_pressure;BME280_temperature;BME280_humidity;BME280_pressure;Samples;Min_cycle;Max_cycle;Signal;HPM_P1;HPM_P2
2022/08/14 00:00:29;;;;;;;32.40;23.13;;;19.60;99.90;;;;;;5055806;28;20025;-84
2022/08/14 00:02:55;;;;;;;29.27;21.98;;;19.60;99.90;;;;;;5056985;28;20025;-85
2022/08/14 00:05:21;;;;;;;28.98;21.75;;;19.60;99.90;;;;;;5055924;28;20029;-85
2022/08/14 00:07:48;;;;;;;27.02;22.13;;;19.60;99.90;;;;;;5055728;28;20491;-84
2022/08/14 00:10:18;;;;;;;32.25;21.58;;;19.70;99.90;;;;;;5055563;28;20120;-85
2022/08/14 00:12:51;;;;;;;31.33;21.95;;;19.70;99.90;;;;;;5055696;28;20033;-84
2022/08/14 00:15:28;;;;;;;29.42;23.52;;;19.60;99.90;;;;;;5057150;28;20036;-84
2022/08/14 00:17:54;;;;;;;34.75;24.48;;;19.50;99.90;;;;;;5055537;28;20396;-84
2022/08/14 00:20:32;;;;;;;34.97;24.73;;;19.50;99.90;;;;;;5055478;28;20020;-85
2022/08/14 00:22:59;;;;;;;30.10;23.30;;;19.40;99.90;;;;;;5055925;28;20047;-85
2022/08/14 00:25:26;;;;;;;35.83;24.23;;;19.40;99.90;;;;;;5055234;28;20030;-85
2022/08/14 00:27:52;;;;;;;36.95;25.60;;;19.40;99.90;;;;;;5055372;28;20033;-86
2022/08/14 00:30:18;;;;;;;34.58;25.88;;;19.40;99.90;;;;;;5054986;28;20049;-86
2022/08/14 00:32:44;;;;;;;32.47;24.00;;;19.40;99.90;;;;;;5055283;28;20179;-86
2022/08/14 00:35:11;;;;;;;31.00;25.10;;;19.40;99.90;;;;;;5055255;28;20090;-86
2022/08/14 00:37:39;;;;;;;34.63;25.48;;;19.30;99.90;;;;;;5055068;28;20029;-86
2022/08/14 00:40:07;;;;;;;32.72;25.65;;;19.20;99.90;;;;;;5055449;28;20171;-86
2022/08/14 00:42:33;;;;;;;34.50;25.33;;;19.20;99.90;;;;;;5055110;28;20061;-86
2022/08/14 00:44:58;;;;;;;40.13;26.80;;;19.20;99.90;;;;;;5054899;28;20102;-86
2022/08/14 00:47:24;;;;;;;35.28;27.80;;;19.20;99.90;;;;;;5055085;28;20067;-86
2022/08/14 00:49:52;;;;;;;34.45;25.50;;;19.20;99.90;;;;;;5054459;28;20029;-86
2022/08/14 00:52:20;;;;;;;35.03;26.00;;;19.20;99.90;;;;;;5054779;28;20021;-86
2022/08/14 00:54:53;;;;;;;37.05;26.67;;;19.20;99.90;;;;;;5056395;28;20036;-85
2022/08/14 00:57:25;;;;;;;35.58;25.95;;;19.20;99.90;;;;;;5054948;28;20033;-86
2022/08/14 00:59:51;;;;;;;33.65;26.02;;;19.20;99.90;;;;;;5054664;28;20064;-86
2022/08/14 01:02:23;;;;;;;38.53;26.50;;;19.20;99.90;;;;;;5054923;28;20064;-86
2022/08/14 01:04:51;;;;;;;37.45;28.27;;;19.20;99.90;;;;;;5054766;28;20407;-85
2022/08/14 01:07:19;;;;;;;33.28;25.45;;;19.20;99.90;;;;;;5054498;28;20025;-86
2022/08/14 01:09:57;;;;;;;32.65;26.08;;;19.20;99.90;;;;;;5054540;28;20460;-87
2022/08/14 01:12:25;;;;;;;33.80;26.83;;;19.10;99.90;;;;;;5054481;28;20037;-86
2022/08/14 01:14:54;;;;;;;37.80;26.98;;;19.10;99.90;;;;;;5054571;28;20112;-85
2022/08/14 01:17:21;;;;;;;39.17;28.80;;;19.10;99.90;;;;;;5054390;28;20027;-86
2022/08/14 01:22:32;;;;;;;42.13;28.50;;;19.10;99.90;;;;;;5055787;28;20430;-85
2022/08/14 01:24:58;;;;;;;39.95;32.55;;;19.20;99.90;;;;;;5054250;28;20025;-86
2022/08/14 01:27:27;;;;;;;36.15;27.70;;;19.10;99.90;;;;;;5054109;28;20079;-85
2022/08/14 01:29:55;;;;;;;40.05;28.75;;;19.10;99.90;;;;;;5054075;28;20059;-86
2022/08/14 01:32:22;;;;;;;36.78;26.25;;;19.10;99.90;;;;;;5054220;28;20033;-86
2022/08/14 01:34:53;;;;;;;36.00;25.77;;;19.10;99.90;;;;;;5053975;28;20400;-86
2022/08/14 01:37:24;;;;;;;34.33;26.33;;;19.00;99.90;;;;;;5054278;28;20021;-85
2022/08/14 01:39:51;;;;;;;39.27;27.60;;;18.90;99.90;;;;;;5054465;28;20033;-85
2022/08/14 01:42:18;;;;;;;37.30;26.88;;;18.90;99.90;;;;;;5053878;28;20315;-86
2022/08/14 01:44:47;;;;;;;41.80;29.08;;;18.90;99.90;;;;;;5053886;28;20115;-85
2022/08/14 01:47:14;;;;;;;35.90;27.80;;;18.80;99.90;;;;;;5053756;28;20040;-86
2022/08/14 01:49:40;;;;;;;34.85;26.17;;;18.90;99.90;;;;;;5053946;28;20029;-86
2022/08/14 01:52:07;;;;;;;34.05;27.45;;;18.90;99.90;;;;;;5055081;28;20025;-86
2022/08/14 01:54:34;;;;;;;39.92;27.20;;;18.90;99.90;;;;;;5053603;28;20036;-86
2022/08/14 01:57:01;;;;;;;37.25;27.33;;;18.90;99.90;;;;;;5053995;28;20032;-85
2022/08/14 01:59:33;;;;;;;35.70;27.42;;;18.90;99.90;;;;;;5053575;28;20452;-86
2022/08/14 02:02:02;;;;;;;35.88;27.60;;;18.90;99.90;;;;;;5053007;28;20033;-86
2022/08/14 02:04:34;;;;;;;33.92;26.25;;;18.90;99.90;;;;;;5053616;28;20029;-85
2022/08/14 02:07:01;;;;;;;31.35;25.25;;;18.90;99.90;;;;;;5053524;28;20021;-86
2022/08/14 02:09:33;;;;;;;33.15;26.30;;;18.90;99.90;;;;;;5053298;28;20031;-85
2022/08/14 02:12:01;;;;;;;33.60;27.23;;;18.90;99.90;;;;;;5053393;28;20032;-86
2022/08/14 02:14:28;;;;;;;38.60;27.85;;;18.90;99.90;;;;;;5053399;28;20040;-86
2022/08/14 02:16:56;;;;;;;34.40;25.63;;;18.90;99.90;;;;;;5053130;28;20029;-86
2022/08/14 02:19:25;;;;;;;31.35;25.33;;;19.00;99.90;;;;;;5053283;28;20025;-86
2022/08/14 02:21:56;;;;;;;33.13;25.00;;;18.90;99.90;;;;;;5053347;28;20033;-86
2022/08/14 02:24:24;;;;;;;29.35;24.33;;;19.00;99.90;;;;;;5053096;28;20020;-86
2022/08/14 02:26:52;;;;;;;34.65;25.38;;;19.00;99.90;;;;;;5053187;28;20521;-85
2022/08/14 02:29:24;;;;;;;31.92;24.02;;;19.00;99.90;;;;;;5054056;28;20053;-86
2022/08/14 02:31:54;;;;;;;32.17;24.02;;;18.90;99.90;;;;;;5053115;28;20087;-86
2022/08/14 02:34:31;;;;;;;34.60;25.63;;;18.90;99.90;;;;;;5053092;28;20029;-86
2022/08/14 02:37:01;;;;;;;28.52;23.10;;;18.90;99.90;;;;;;5053217;28;20051;-86
2022/08/14 02:39:30;;;;;;;31.38;24.25;;;19.00;99.90;;;;;;5053060;28;20379;-87
2022/08/14 02:41:57;;;;;;;30.92;23.75;;;18.90;99.90;;;;;;5052829;28;20423;-85
2022/08/14 02:44:24;;;;;;;34.33;24.48;;;18.90;99.90;;;;;;5052734;28;20495;-86
2022/08/14 02:46:53;;;;;;;38.47;25.70;;;18.90;99.90;;;;;;5052777;28;20025;-86
2022/08/14 02:49:26;;;;;;;32.33;24.45;;;18.90;99.90;;;;;;5052859;28;20078;-86
2022/08/14 02:51:54;;;;;;;32.08;24.60;;;18.80;99.90;;;;;;5052536;28;20068;-86
2022/08/14 02:54:23;;;;;;;37.55;25.60;;;18.80;99.90;;;;;;5052677;28;20082;-86
2022/08/14 02:56:53;;;;;;;34.78;25.70;;;18.80;99.90;;;;;;5052719;28;20025;-86
2022/08/14 02:59:22;;;;;;;31.63;24.33;;;18.80;99.90;;;;;;5052541;28;20025;-86
2022/08/14 03:01:47;;;;;;;31.73;24.40;;;18.80;99.90;;;;;;5052529;28;20029;-85
2022/08/14 03:04:14;;;;;;;31.80;25.75;;;18.80;99.90;;;;;;5052370;28;20036;-86
2022/08/14 03:06:42;;;;;;;34.78;23.80;;;18.80;99.90;;;;;;5052639;28;20025;-87
2022/08/14 03:09:08;;;;;;;30.50;23.90;;;18.80;99.90;;;;;;5052729;28;20423;-86
2022/08/14 03:11:34;;;;;;;28.08;22.80;;;18.80;99.90;;;;;;5052328;28;20025;-86
2022/08/14 03:14:00;;;;;;;31.70;22.15;;;18.80;99.90;;;;;;5052326;28;20025;-85
2022/08/14 03:16:27;;;;;;;27.80;23.17;;;18.80;99.90;;;;;;5053926;28;20079;-87
2022/08/14 03:18:57;;;;;;;32.13;23.15;;;18.80;99.90;;;;;;5052267;28;20029;-86
2022/08/14 03:21:23;;;;;;;27.88;22.90;;;18.70;99.90;;;;;;5052482;28;20028;-86
2022/08/14 03:24:11;;;;;;;32.22;24.45;;;18.80;99.90;;;;;;5052250;28;20021;-87
2022/08/14 03:26:42;;;;;;;34.17;25.00;;;18.70;99.90;;;;;;5052156;28;20463;-87
2022/08/14 03:29:11;;;;;;;32.85;25.20;;;18.80;99.90;;;;;;5051972;28;20530;-87
2022/08/14 03:31:39;;;;;;;30.27;24.92;;;18.70;99.90;;;;;;5052284;28;20475;-86
2022/08/14 03:34:10;;;;;;;32.97;25.05;;;18.70;99.90;;;;;;5052109;28;20028;-86
2022/08/14 03:36:39;;;;;;;35.05;26.80;;;18.70;99.90;;;;;;5052227;28;20132;-86
2022/08/14 03:39:07;;;;;;;36.83;27.52;;;18.70;99.90;;;;;;5053522;28;20071;-86
2022/08/14 03:41:34;;;;;;;39.10;28.77;;;18.70;99.90;;;;;;5051730;28;20040;-87
2022/08/14 03:44:02;;;;;;;43.92;30.30;;;18.70;99.90;;;;;;5052117;28;20052;-86
2022/08/14 03:46:30;;;;;;;42.47;30.77;;;18.70;99.90;;;;;;5051987;28;20530;-86
2022/08/14 03:48:56;;;;;;;48.78;31.25;;;18.60;99.90;;;;;;5052419;28;20090;-86
2022/08/14 03:51:27;;;;;;;43.10;30.90;;;18.60;99.90;;;;;;5053317;28;20519;-86
2022/08/14 03:53:58;;;;;;;48.37;32.23;;;18.60;99.90;;;;;;5052025;28;20029;-86
2022/08/14 03:56:26;;;;;;;48.80;31.70;;;18.60;99.90;;;;;;5052203;28;20036;-87
2022/08/14 03:58:55;;;;;;;47.83;33.35;;;18.60;99.90;;;;;;5051940;28;20078;-86
2022/08/14 04:01:23;;;;;;;50.80;33.22;;;18.60;99.90;;;;;;5052126;28;20460;-86
2022/08/14 04:03:51;;;;;;;53.30;32.80;;;18.50;99.90;;;;;;5051901;28;20032;-86
2022/08/14 04:06:19;;;;;;;51.22;32.75;;;18.60;99.90;;;;;;5052048;28;20025;-86
2022/08/14 04:08:45;;;;;;;44.22;32.33;;;18.60;99.90;;;;;;5053256;28;20025;-85
2022/08/14 04:11:14;;;;;;;48.63;32.42;;;18.60;99.90;;;;;;5051762;28;20025;-87
2022/08/14 04:13:41;;;;;;;48.60;32.72;;;18.60;99.90;;;;;;5051926;28;20076;-86
2022/08/14 04:16:19;;;;;;;46.35;33.08;;;18.60;99.90;;;;;;5051682;28;20021;-86
2022/08/14 04:18:48;;;;;;;47.72;32.00;;;18.60;99.90;;;;;;5051838;28;20033;-86
2022/08/14 04:21:15;;;;;;;43.22;30.98;;;18.60;99.90;;;;;;5051598;28;20095;-86
2022/08/14 04:23:42;;;;;;;46.63;32.53;;;18.60;99.90;;;;;;5051827;28;20478;-87
2022/08/14 04:26:11;;;;;;;45.80;32.67;;;18.60;99.90;;;;;;5054198;28;20052;-86
2022/08/14 04:28:38;;;;;;;43.58;31.80;;;18.60;99.90;;;;;;5056241;28;20025;-86
2022/08/14 04:31:05;;;;;;;52.13;32.80;;;18.60;99.90;;;;;;5055212;28;20052;-87
2022/08/14 04:33:31;;;;;;;45.95;32.35;;;18.60;99.90;;;;;;5056694;28;20031;-85
2022/08/14 04:35:57;;;;;;;42.72;31.80;;;18.60;99.90;;;;;;5055143;28;20079;-86
2022/08/14 04:43:52;;;;;;;47.28;32.15;;;18.60;99.90;;;;;;5056403;28;20075;-87
2022/08/14 04:46:21;;;;;;;49.17;32.22;;;18.60;99.90;;;;;;5056097;28;20032;-87
2022/08/14 04:48:47;;;;;;;43.10;30.08;;;18.50;99.90;;;;;;5055240;28;20040;-87
2022/08/14 04:51:16;;;;;;;48.72;32.05;;;18.50;99.90;;;;;;5054799;28;20033;-87
2022/08/14 04:53:44;;;;;;;44.15;31.33;;;18.50;99.90;;;;;;5054849;28;20025;-86
2022/08/14 04:56:12;;;;;;;46.55;32.25;;;18.60;99.90;;;;;;5055340;28;20375;-87
2022/08/14 04:58:41;;;;;;;46.55;30.23;;;18.50;99.90;;;;;;5055137;28;20032;-87
2022/08/14 05:01:09;;;;;;;46.30;30.83;;;18.50;99.90;;;;;;5054736;28;20025;-87
2022/08/14 05:03:37;;;;;;;43.15;29.83;;;18.50;99.90;;;;;;5054568;28;20100;-86
2022/08/14 05:06:08;;;;;;;44.97;34.78;;;18.50;99.90;;;;;;5054759;28;20526;-87
2022/08/14 05:08:34;;;;;;;43.97;29.40;;;18.60;99.90;;;;;;5054690;28;20502;-87
2022/08/14 05:11:05;;;;;;;42.17;29.92;;;18.60;99.90;;;;;;5054398;28;20132;-86
2022/08/14 05:13:33;;;;;;;40.17;27.77;;;18.60;99.90;;;;;;5054649;28;20025;-86
2022/08/14 05:16:00;;;;;;;39.83;26.52;;;18.60;99.90;;;;;;5054494;28;20025;-86
2022/08/14 05:18:34;;;;;;;37.72;27.33;;;18.60;99.90;;;;;;5053999;28;20490;-87
2022/08/14 05:21:02;;;;;;;37.70;27.88;;;18.60;99.90;;;;;;5054817;28;20032;-86
2022/08/14 05:23:30;;;;;;;38.15;26.90;;;18.70;99.90;;;;;;5054429;28;20075;-87
2022/08/14 05:26:01;;;;;;;30.65;23.73;;;18.70;99.90;;;;;;5054214;28;20102;-87
2022/08/14 05:28:30;;;;;;;36.70;24.33;;;18.70;99.90;;;;;;5054326;28;20036;-89
2022/08/14 05:30:59;;;;;;;30.55;23.30;;;18.70;99.90;;;;;;5054156;28;20048;-87
2022/08/14 05:33:30;;;;;;;31.23;22.60;;;18.80;99.90;;;;;;5054032;28;20069;-88
2022/08/14 05:36:00;;;;;;;37.08;24.90;;;18.80;99.90;;;;;;5053698;28;20033;-87
2022/08/14 05:38:33;;;;;;;32.28;23.00;;;18.80;99.90;;;;;;5053466;28;20060;-87
2022/08/14 05:41:00;;;;;;;31.05;22.60;;;18.80;99.90;;;;;;5054484;28;20029;-88
2022/08/14 05:43:26;;;;;;;32.03;21.88;;;18.80;99.90;;;;;;5053982;28;20039;-88
2022/08/14 05:45:51;;;;;;;33.58;23.50;;;18.80;99.90;;;;;;5053813;28;20029;-87
2022/08/14 05:48:17;;;;;;;35.00;23.13;;;18.80;99.90;;;;;;5054000;28;20048;-87
2022/08/14 05:50:43;;;;;;;31.90;21.13;;;18.80;99.90;;;;;;5053778;28;20021;-86
2022/08/14 05:53:09;;;;;;;35.20;23.05;;;18.90;99.90;;;;;;5054945;28;20035;-86
2022/08/14 05:55:35;;;;;;;32.20;23.30;;;18.90;99.90;;;;;;5053859;28;20103;-86
2022/08/14 05:58:06;;;;;;;28.58;21.50;;;18.90;99.90;;;;;;5053700;28;20036;-87
2022/08/14 06:00:38;;;;;;;35.17;22.60;;;18.90;99.90;;;;;;5053601;28;20025;-87
2022/08/14 06:03:13;;;;;;;33.47;22.67;;;19.10;99.90;;;;;;5053889;28;20431;-88
2022/08/14 06:05:40;;;;;;;32.00;21.45;;;19.10;99.90;;;;;;5053676;28;20033;-87
2022/08/14 06:08:15;;;;;;;29.27;22.10;;;19.10;99.90;;;;;;5053315;28;20380;-87
2022/08/14 06:10:41;;;;;;;31.67;23.17;;;19.20;99.90;;;;;;5053457;28;20090;-87
2022/08/14 06:13:07;;;;;;;28.30;22.15;;;19.20;99.90;;;;;;5053516;28;20391;-86
2022/08/14 06:15:33;;;;;;;28.13;20.92;;;19.10;99.90;;;;;;5053210;28;20078;-87
2022/08/14 06:17:59;;;;;;;27.23;20.70;;;19.10;99.90;;;;;;5053013;28;20071;-87
2022/08/14 06:20:24;;;;;;;34.20;21.85;;;19.20;99.90;;;;;;5053112;28;20029;-87
2022/08/14 06:22:50;;;;;;;29.88;21.15;;;19.20;99.90;;;;;;5053306;28;20047;-88
2022/08/14 06:25:16;;;;;;;29.02;20.92;;;19.30;99.90;;;;;;5053286;28;20029;-87
2022/08/14 06:27:44;;;;;;;26.23;19.60;;;19.30;99.90;;;;;;5052997;28;20029;-87
2022/08/14 06:30:13;;;;;;;31.05;20.27;;;19.30;99.90;;;;;;5053116;28;20102;-87
2022/08/14 06:32:39;;;;;;;34.75;20.40;;;19.30;99.90;;;;;;5053017;28;20115;-87
2022/08/14 06:35:07;;;;;;;28.65;19.85;;;19.40;99.90;;;;;;5052871;28;20120;-87
2022/08/14 06:37:53;;;;;;;26.55;19.83;;;19.40;99.90;;;;;;5053025;28;20036;-87
2022/08/14 06:40:25;;;;;;;30.45;18.30;;;19.50;99.90;;;;;;5052989;28;20025;-87
2022/08/14 06:42:52;;;;;;;25.17;18.05;;;19.60;99.90;;;;;;5052690;28;20155;-88
2022/08/14 06:45:18;;;;;;;21.27;17.50;;;19.80;99.90;;;;;;5052836;28;20029;-89
2022/08/14 06:47:46;;;;;;;22.50;18.05;;;20.10;99.90;;;;;;5052421;28;20025;-89
2022/08/14 06:50:30;;;;;;;22.98;15.75;;;20.20;99.90;;;;;;5052698;28;20032;-90
2022/08/14 06:52:59;;;;;;;24.48;16.73;;;20.30;99.90;;;;;;5052716;28;20065;-88
2022/08/14 06:55:26;;;;;;;21.52;16.40;;;20.40;99.90;;;;;;5052299;28;20055;-88
2022/08/14 06:57:58;;;;;;;20.90;17.25;;;20.50;99.90;;;;;;5052591;28;20387;-90
2022/08/14 07:07:37;;;;;;;24.55;17.45;;;20.50;99.90;;;;;;5053553;28;20028;-91
2022/08/14 07:10:06;;;;;;;25.05;18.90;;;20.50;99.90;;;;;;5012611;28;20492;-90
2022/08/14 07:12:40;;;;;;;24.25;18.23;;;20.30;99.90;;;;;;5014993;28;20049;-90
2022/08/14 07:15:35;;;;;;;24.42;18.50;;;20.20;99.90;;;;;;5014986;28;20037;-89
2022/08/14 07:18:32;;;;;;;;;;;;;;;;;;;;;
2022/08/14 07:21:05;;;;;;;22.38;17.95;;;20.10;99.90;;;;;;4970861;28;20573;-91
2022/08/14 07:27:05;;;;;;;22.67;17.65;;;20.20;99.90;;;;;;4964228;28;20082;-90
2022/08/14 07:29:47;;;;;;;17.52;15.18;;;20.40;99.90;;;;;;4956373;28;20097;-90
2022/08/14 07:32:13;;;;;;;16.75;14.73;;;20.50;99.90;;;;;;4956368;28;20398;-89
2022/08/14 07:35:05;;;;;;;20.17;14.55;;;20.60;99.90;;;;;;4956254;28;20039;-90
2022/08/14 07:37:36;;;;;;;21.15;14.90;;;20.70;99.90;;;;;;4952361;28;20121;-90
2022/08/14 07:40:08;;;;;;;19.75;13.80;;;20.80;99.90;;;;;;4963240;28;20076;-91
2022/08/14 07:43:01;;;;;;;17.60;13.63;;;20.80;99.90;;;;;;5012213;28;20042;-89
2022/08/14 07:46:15;;;;;;;17.70;13.80;;;20.80;99.90;;;;;;5011178;28;20026;-90
2022/08/14 07:48:42;;;;;;;17.83;13.93;;;20.90;99.90;;;;;;5045634;28;20037;-88
2022/08/14 07:51:09;;;;;;;17.60;14.02;;;21.00;99.90;;;;;;5052179;28;20379;-88
2022/08/14 07:53:43;;;;;;;16.85;13.93;;;21.10;99.90;;;;;;5052223;28;20032;-89
2022/08/14 07:56:13;;;;;;;17.55;12.82;;;21.40;99.90;;;;;;5052199;28;20031;-90
2022/08/14 07:58:51;;;;;;;17.77;14.15;;;21.80;99.90;;;;;;5052175;28;20372;-89
2022/08/14 08:01:20;;;;;;;21.45;13.80;;;22.10;99.90;;;;;;5054758;28;20150;-89
2022/08/14 08:03:48;;;;;;;16.27;13.35;;;22.00;99.90;;;;;;5055252;28;20033;-89
2022/08/14 08:06:15;;;;;;;18.30;13.25;;;22.10;99.90;;;;;;5055750;28;20459;-87
2022/08/14 08:08:46;;;;;;;20.42;12.52;;;22.10;99.90;;;;;;5055827;28;20361;-88
2022/08/14 08:11:13;;;;;;;17.98;12.93;;;21.80;99.90;;;;;;5055874;28;20029;-88
2022/08/14 08:13:42;;;;;;;20.42;13.25;;;21.80;99.90;;;;;;5055544;28;20032;-89
2022/08/14 08:16:08;;;;;;;20.95;14.77;;;21.70;99.90;;;;;;5055637;28;20021;-88
2022/08/14 08:18:34;;;;;;;19.08;13.95;;;21.60;99.90;;;;;;5055963;28;20032;-88
2022/08/14 08:21:00;;;;;;;19.80;13.45;;;21.60;99.90;;;;;;5055480;28;20456;-87
2022/08/14 08:23:28;;;;;;;18.05;12.95;;;21.60;99.90;;;;;;5055503;28;20036;-87
2022/08/14 08:25:57;;;;;;;17.85;12.93;;;21.60;99.90;;;;;;5055594;28;20029;-88
2022/08/14 08:28:26;;;;;;;15.80;12.10;;;21.60;99.90;;;;;;5055298;28;20121;-88
2022/08/14 08:30:57;;;;;;;16.25;11.43;;;21.60;99.90;;;;;;5055301;28;20048;-88
2022/08/14 08:33:26;;;;;;;18.63;13.93;;;21.60;99.90;;;;;;5055287;28;20075;-87
2022/08/14 08:35:56;;;;;;;21.60;12.52;;;21.70;99.90;;;;;;5055633;28;20035;-87
2022/08/14 08:38:25;;;;;;;20.75;12.13;;;21.80;99.90;;;;;;5055238;28;20108;-87
2022/08/14 08:40:54;;;;;;;19.88;12.68;;;21.80;99.90;;;;;;5055010;28;20028;-87
2022/08/14 08:43:32;;;;;;;14.35;11.93;;;21.90;99.90;;;;;;5055432;28;20028;-87
2022/08/14 08:46:04;;;;;;;13.30;11.27;;;22.00;99.90;;;;;;5055095;28;20239;-87
2022/08/14 08:48:42;;;;;;;14.95;11.43;;;;;;;;;;5056324;28;20099;-87
2022/08/14 08:51:09;;;;;;;15.38;11.55;;;;;;;;;;5055312;28;20029;-87
2022/08/14 08:53:35;;;;;;;14.18;10.77;;;;;;;;;;5055168;28;20112;-87
2022/08/14 08:56:02;;;;;;;12.57;11.02;;;;;;;;;;5054985;28;20116;-87
2022/08/14 08:58:29;;;;;;;13.68;11.63;;;;;;;;;;5055147;28;20426;-87
2022/08/14 09:01:00;;;;;;;15.38;12.65;;;;;;;;;;5054897;28;20414;-87
2022/08/14 09:03:27;;;;;;;20.10;12.37;;;;;;;;;;5054803;28;20043;-87
2022/08/14 09:05:54;;;;;;;20.42;13.88;;;;;;;;;;5054940;28;20021;-86
2022/08/14 09:08:24;;;;;;;16.90;12.82;;;;;;;;;;5054553;28;20079;-87
2022/08/14 09:10:51;;;;;;;12.95;10.50;;;;;;;;;;5054386;28;20056;-87
2022/08/14 09:13:18;;;;;;;12.55;9.65;;;;;;;;;;5054604;28;20033;-87
2022/08/14 09:15:45;;;;;;;13.38;10.45;;;;;;;;;;5054423;28;20021;-87
2022/08/14 09:18:13;;;;;;;13.23;10.75;;;;;;;;;;5054651;28;20025;-86
2022/08/14 09:20:39;;;;;;;13.77;9.85;;;;;;;;;;5054455;28;20024;-86
2022/08/14 09:23:06;;;;;;;12.57;10.25;;;;;;;;;;5055466;28;20044;-87
2022/08/14 09:25:32;;;;;;;14.88;11.82;;;;;;;;;;5055783;28;20028;-86
2022/08/14 09:27:59;;;;;;;14.18;11.73;;;;;;;;;;5054352;28;20521;-87
2022/08/14 09:30:25;;;;;;;12.98;10.07;;;;;;;;;;5053905;28;20055;-87
2022/08/14 09:33:03;;;;;;;13.90;10.43;;;;;;;;;;5054136;28;20032;-87
2022/08/14 09:35:36;;;;;;;15.63;10.65;;;;;;;;;;5055542;28;20027;-87
2022/08/14 09:38:02;;;;;;;12.07;9.88;;;;;;;;;;5054058;28;20021;-87
2022/08/14 09:40:38;;;;;;;13.27;11.10;;;;;;;;;;5055357;28;20025;-86
2022/08/14 09:43:11;;;;;;;21.05;13.32;;;;;;;;;;5054209;28;20029;-86
2022/08/14 09:45:48;;;;;;;13.00;9.77;;;;;;;;;;5054206;28;20353;-86
2022/08/14 09:48:18;;;;;;;10.88;8.63;;;;;;;;;;5053971;28;20017;-86
2022/08/14 09:50:46;;;;;;;11.10;8.85;;;;;;;;;;5055074;28;20468;-86
2022/08/14 09:53:15;;;;;;;10.07;8.93;;;;;;;;;;5055000;28;20025;-86
2022/08/14 09:55:41;;;;;;;10.93;9.82;;;;;;;;;;5053813;28;20368;-86
2022/08/14 09:58:10;;;;;;;10.35;8.65;;;;;;;;;;5054645;28;20025;-85
2022/08/14 10:00:42;;;;;;;16.02;10.75;;;;;;;;;;5053818;28;20025;-85
2022/08/14 10:03:08;;;;;;;18.42;13.20;;;;;;;;;;5053872;28;20495;-85
2022/08/14 10:05:35;;;;;;;10.32;8.18;;;;;;;;;;5053488;28;20380;-86
2022/08/14 10:08:02;;;;;;;12.95;10.70;;;;;;;;;;5054605;28;20609;-86
2022/08/14 10:10:29;;;;;;;14.95;11.55;;;;;;;;;;5054626;28;20111;-84
2022/08/14 10:12:55;;;;;;;20.70;13.98;;;;;;;;;;5053270;28;20029;-86
2022/08/14 10:15:23;;;;;;;15.85;11.57;;;;;;;;;;5053599;28;20037;-84
2022/08/14 10:17:51;;;;;;;10.75;9.63;;;;;;;;;;5053484;28;20025;-85
2022/08/14 10:20:21;;;;;;;11.63;9.50;;;;;;;;;;5053276;28;20082;-84
2022/08/14 10:22:49;;;;;;;9.40;8.45;;;;;;;;;;5053770;28;20027;-85
2022/08/14 10:25:16;;;;;;;13.15;8.43;;;;;;;;;;5054374;28;20384;-85
2022/08/14 10:27:48;;;;;;;11.52;7.55;;;;;;;;;;5054602;28;20013;-85
2022/08/14 10:30:16;;;;;;;24.30;14.82;;;;;;;;;;5052689;28;20053;-85
2022/08/14 10:32:43;;;;;;;13.90;10.63;;;;;;;;;;5052873;28;20132;-85
2022/08/14 10:35:10;;;;;;;13.20;10.48;;;;;;;;;;5053155;28;20029;-85
2022/08/14 10:37:38;;;;;;;10.48;9.35;;;;;;;;;;5054544;28;20074;-83
2022/08/14 10:40:04;;;;;;;11.98;9.55;;;;;;;;;;5053811;28;20384;-85
2022/08/14 10:42:38;;;;;;;11.75;8.65;;;;;;;;;;5053022;28;20492;-83
2022/08/14 10:45:19;;;;;;;10.75;8.23;;;;;;;;;;5054236;28;20029;-83
2022/08/14 10:47:45;;;;;;;13.13;8.15;;;;;;;;;;5054056;28;20151;-84
2022/08/14 10:50:13;;;;;;;10.80;8.32;;;;;;;;;;5054460;28;20111;-83
2022/08/14 10:52:41;;;;;;;10.30;8.60;;;;;;;;;;5053762;28;20375;-83
2022/08/14 10:55:12;;;;;;;12.23;8.55;;;;;;;;;;5052643;28;20025;-83
2022/08/14 10:57:49;;;;;;;12.43;8.90;;;;;;;;;;5054029;28;20017;-83
2022/08/14 11:00:17;;;;;;;14.82;8.45;;;;;;;;;;5053487;28;20439;-84
2022/08/14 11:02:43;;;;;;;11.27;8.55;;;;;;;;;;5054040;28;20029;-83
2022/08/14 11:05:13;;;;;;;9.63;8.63;;;;;;;;;;5053911;28;20025;-82
2022/08/14 11:07:41;;;;;;;10.70;8.55;;;;;;;;;;5052381;28;20057;-84
2022/08/14 11:10:11;;;;;;;10.30;9.25;;;;;;;;;;5052331;28;20074;-83
2022/08/14 11:12:45;;;;;;;10.68;9.57;;;;;;;;;;5053751;28;20083;-84
2022/08/14 11:15:11;;;;;;;12.85;7.25;;;;;;;;;;5052542;28;20379;-84
2022/08/14 11:17:38;;;;;;;8.63;7.32;;;;;;;;;;5053506;28;20096;-83
2022/08/14 11:20:06;;;;;;;12.55;7.15;;;;;;;;;;5053943;28;20108;-83
2022/08/14 11:22:32;;;;;;;9.23;8.07;;;;;;;;;;5053213;28;20025;-84
2022/08/14 11:25:02;;;;;;;11.60;8.27;;;;;;;;;;5053416;28;20415;-84
2022/08/14 11:27:30;;;;;;;9.35;8.18;;;;;;;;;;5053432;28;20017;-84
2022/08/14 11:29:59;;;;;;;10.60;8.55;;;;;;;;;;5052047;28;20071;-84
2022/08/14 11:32:26;;;;;;;9.40;8.50;;;;;;;;;;5052303;28;20356;-83
2022/08/14 11:34:52;;;;;;;9.40;8.40;;;;;;;;;;5054660;28;20086;-83
2022/08/14 11:37:20;;;;;;;9.52;8.63;;;;;;;;;;5057275;28;20383;-83
2022/08/14 11:39:47;;;;;;;9.15;8.25;;;;;;;;;;5056358;28;20130;-84
2022/08/14 11:42:20;;;;;;;14.20;8.93;;;;;;;;;;5057831;28;20372;-83
2022/08/14 11:44:48;;;;;;;9.80;8.80;;;;;;;;;;5057662;28;20021;-84
2022/08/14 11:47:18;;;;;;;10.10;8.80;;;;;;;;;;5057609;28;20024;-83
2022/08/14 11:49:45;;;;;;;10.85;9.75;;;;;;;;;;5056156;28;20021;-82
2022/08/14 11:52:12;;;;;;;9.25;8.35;;;;;;;;;;5057523;28;20103;-83
2022/08/14 11:54:38;;;;;;;12.13;8.63;;;;;;;;;;5057240;28;20025;-83
2022/08/14 11:57:04;;;;;;;10.90;9.02;;;;;;;;;;5057327;28;20052;-83
2022/08/14 11:59:32;;;;;;;13.07;9.82;;;;;;;;;;5056123;28;20125;-84
2022/08/14 12:02:08;;;;;;;10.50;8.35;;;;;;;;;;5057173;28;20029;-82
2022/08/14 12:04:34;;;;;;;10.45;9.38;;;;;;;;;;5057302;28;20025;-83
2022/08/14 12:07:02;;;;;;;10.25;8.80;;;;;;;;;;5057237;28;20032;-82
2022/08/14 12:09:29;;;;;;;15.05;10.43;;;;;;;;;;5057188;28;20023;-82
2022/08/14 12:11:55;;;;;;;10.48;9.38;;;;;;;;;;5056723;28;20029;-82
2022/08/14 12:14:22;;;;;;;10.35;9.32;;;;;;;;;;5054899;28;20380;-84
2022/08/14 12:17:03;;;;;;;9.80;8.80;;;;;;;;;;5057101;28;20021;-82
2022/08/14 12:19:31;;;;;;;;;;;;;;;;;;5055985;28;20108;-82
2022/08/14 12:21:57;;;;;;;10.80;9.20;;;;;;;;;;5060869;28;19939;-81
2022/08/14 12:24:27;;;;;;;12.23;10.57;;;;;;;;;;5066860;28;20432;-83
2022/08/14 12:26:54;;;;;;;11.48;10.38;;;;;;;;;;5062886;28;20119;-82
2022/08/14 12:29:20;;;;;;;10.80;9.60;;;;;;;;;;5065494;28;20049;-82
2022/08/14 12:31:57;;;;;;;13.27;10.88;;;;;;;;;;5065932;28;20028;-82
2022/08/14 12:34:30;;;;;;;9.38;8.43;;;;;;;;;;5055932;28;20017;-80
2022/08/14 12:37:04;;;;;;;9.32;8.52;;;;;;;;;;5061993;28;20108;-83
2022/08/14 12:39:31;;;;;;;9.75;8.85;;;;;;;;;;5057495;28;20086;-82
2022/08/14 12:42:08;;;;;;;9.32;8.52;;;;;;;;;;5053853;28;20032;-85
2022/08/14 12:44:41;;;;;;;10.18;8.98;;;;;;;;;;5054233;28;20032;-82
2022/08/14 12:47:11;;;;;;;9.63;8.82;;;;;;;;;;5055119;28;20029;-82
2022/08/14 12:49:38;;;;;;;9.00;8.10;;;;;;;;;;5055033;28;20549;-81
2022/08/14 12:52:07;;;;;;;10.52;8.57;;;;;;;;;;5056031;28;20378;-81
2022/08/14 12:54:34;;;;;;;8.85;7.95;;;;;;;;;;5056281;28;20052;-83
2022/08/14 12:57:08;;;;;;;11.65;7.80;;;;;;;;;;5056047;28;20036;-84
2022/08/14 12:59:34;;;;;;;15.00;9.82;;;;;;;;;;5057592;28;20024;-81
2022/08/14 13:02:01;;;;;;;15.27;10.43;;;;;;;;;;5056692;28;20549;-82
2022/08/14 13:04:30;;;;;;;10.63;8.75;;;;;;;;;;5066884;28;20032;-81
2022/08/14 13:07:07;;;;;;;9.48;8.57;;;;;;;;;;5056541;28;20025;-83
2022/08/14 13:09:33;;;;;;;10.65;9.63;;;;;;;;;;5068278;28;20467;-81
2022/08/14 13:12:02;;;;;;;9.50;8.60;;;;;;;;;;5075796;28;20063;-82
2022/08/14 13:14:29;;;;;;;11.40;9.63;;;;;;;;;;5063289;28;20018;-82
2022/08/14 13:16:56;;;;;;;10.57;8.55;;;;;;;;;;5055995;28;20371;-81
2022/08/14 13:19:23;;;;;;;10.40;9.27;;;;;;;;;;5056214;28;20032;-82
2022/08/14 13:21:52;;;;;;;10.70;9.50;;;;;;;;;;5070043;28;20024;-81
2022/08/14 13:24:18;;;;;;;9.93;9.02;;;;;;;;;;5075367;28;20418;-81
2022/08/14 13:26:46;;;;;;;10.35;9.45;;;;;;;;;;5074469;28;20023;-81
2022/08/14 13:29:14;;;;;;;10.32;9.38;;;;;;;;;;5074250;28;20056;-80
2022/08/14 13:31:44;;;;;;;10.73;9.73;;;;;;;;;;5074175;28;20036;-81
2022/08/14 13:34:12;;;;;;;14.80;9.63;;;;;;;;;;5073423;28;20085;-81
2022/08/14 13:36:39;;;;;;;10.13;9.27;;;;;;;;;;5057508;28;20574;-81
2022/08/14 13:39:05;;;;;;;10.93;9.93;;;;;;;;;;5061049;28;20032;-81